createdAt,value
2023-03-06T00:01:10.125Z,5.97
2023-03-06T00:03:37.636Z,5.63
2023-03-06T00:06:04.134Z,6.10
2023-03-06T00:08:30.612Z,5.60
2023-03-06T00:10:57.007Z,5.55
2023-03-06T00:13:23.472Z,5.50
2023-03-06T00:15:50.135Z,5.40
2023-03-06T00:18:16.941Z,5.30
2023-03-06T00:20:43.261Z,5.10
2023-03-06T00:23:09.754Z,5.10
2023-03-06T00:25:36.064Z,4.68
2023-03-06T00:28:02.457Z,5.25
2023-03-06T00:30:28.965Z,5.03
2023-03-06T00:32:55.379Z,5.18
2023-03-06T00:35:21.726Z,4.80
2023-03-06T00:37:48.191Z,4.95
2023-03-06T00:40:14.665Z,5.32
2023-03-06T00:42:41.411Z,5.38
2023-03-06T00:45:07.847Z,4.65
2023-03-06T00:47:34.203Z,4.80
2023-03-06T00:50:00.672Z,4.82
2023-03-06T00:52:27.265Z,4.70
2023-03-06T00:54:53.777Z,4.63
2023-03-06T00:57:20.142Z,4.65
2023-03-06T00:59:46.514Z,4.47
2023-03-06T01:02:13.282Z,4.55
2023-03-06T01:04:39.777Z,4.25
2023-03-06T01:07:06.384Z,4.68
2023-03-06T01:09:32.787Z,4.88
2023-03-06T01:11:59.176Z,4.55
2023-03-06T01:14:25.508Z,4.35
2023-03-06T01:16:51.843Z,4.43
2023-03-06T01:19:18.482Z,4.50
2023-03-06T01:21:44.926Z,4.55
2023-03-06T01:24:11.258Z,4.20
2023-03-06T01:26:37.657Z,4.35
2023-03-06T01:29:04.036Z,4.57
2023-03-06T01:31:30.621Z,4.00
2023-03-06T01:33:57.372Z,4.50
2023-03-06T01:36:23.695Z,4.18
2023-03-06T01:38:50.072Z,4.10
2023-03-06T01:41:16.460Z,4.28
2023-03-06T01:43:42.824Z,3.83
2023-03-06T01:46:09.216Z,4.20
2023-03-06T01:48:35.927Z,3.90
2023-03-06T01:51:02.270Z,3.88
2023-03-06T01:53:28.778Z,4.35
2023-03-06T01:55:55.185Z,4.00
2023-03-06T01:58:21.623Z,3.80
2023-03-06T02:00:48.136Z,3.90
2023-03-06T02:03:17.049Z,3.95
2023-03-06T02:05:43.790Z,3.90
2023-03-06T02:08:10.162Z,3.78
2023-03-06T02:10:36.506Z,4.07
2023-03-06T02:13:03.224Z,3.83
2023-03-06T02:15:29.948Z,3.70
2023-03-06T02:17:56.337Z,4.10
2023-03-06T02:20:22.699Z,3.90
2023-03-06T02:22:50.803Z,3.90
2023-03-06T02:25:17.249Z,4.05
2023-03-06T02:27:43.643Z,3.85
2023-03-06T02:30:09.995Z,3.55
2023-03-06T02:32:36.534Z,3.60
2023-03-06T02:35:02.864Z,3.75
2023-03-06T02:37:29.179Z,3.60
2023-03-06T02:39:55.801Z,3.85
2023-03-06T02:42:22.173Z,3.85
2023-03-06T02:44:48.831Z,3.72
2023-03-06T02:47:15.233Z,4.05
2023-03-06T02:49:41.664Z,3.92
2023-03-06T02:52:08.029Z,4.00
2023-03-06T02:54:34.469Z,4.35
2023-03-06T02:57:00.914Z,4.60
2023-03-06T02:59:27.421Z,4.45
2023-03-06T03:01:53.773Z,4.03
2023-03-06T03:04:20.109Z,4.35
2023-03-06T03:06:46.589Z,3.92
2023-03-06T03:09:12.921Z,4.00
2023-03-06T03:11:39.261Z,4.10
2023-03-06T03:14:05.678Z,3.95
2023-03-06T03:16:32.036Z,4.20
2023-03-06T03:18:58.713Z,4.82
2023-03-06T03:21:25.630Z,3.90
2023-03-06T03:23:52.005Z,4.07
2023-03-06T03:26:18.975Z,4.05
2023-03-06T03:28:45.575Z,4.47
2023-03-06T03:31:12.003Z,3.75
2023-03-06T03:33:38.314Z,4.03
2023-03-06T03:36:04.815Z,4.53
2023-03-06T03:38:31.320Z,4.25
2023-03-06T03:40:57.586Z,4.60
2023-03-06T03:43:24.129Z,4.40
2023-03-06T03:45:50.452Z,4.05
2023-03-06T03:48:16.926Z,4.18
2023-03-06T03:50:43.214Z,4.35
2023-03-06T03:53:09.967Z,3.97
2023-03-06T03:55:36.349Z,4.05
2023-03-06T03:58:03.210Z,4.07
2023-03-06T04:00:29.787Z,3.78
2023-03-06T04:02:56.190Z,3.92
2023-03-06T04:05:22.555Z,4.40
2023-03-06T04:07:49.435Z,3.78
2023-03-06T04:10:15.679Z,4.40
2023-03-06T04:12:42.138Z,4.82
2023-03-06T04:15:08.595Z,4.68
2023-03-06T04:17:34.962Z,4.45
2023-03-06T04:20:01.584Z,4.88
2023-03-06T04:22:27.954Z,3.92
2023-03-06T04:24:54.435Z,3.95
2023-03-06T04:27:20.867Z,4.40
2023-03-06T04:29:47.386Z,4.45
2023-03-06T04:32:13.997Z,3.95
2023-03-06T04:34:40.406Z,4.22
2023-03-06T04:37:06.982Z,4.22
2023-03-06T04:39:33.317Z,4.47
2023-03-06T04:41:59.794Z,4.40
2023-03-06T04:44:26.576Z,4.03
2023-03-06T04:46:53.362Z,4.25
2023-03-06T04:49:19.758Z,3.80
2023-03-06T04:51:46.113Z,4.20
2023-03-06T04:54:12.538Z,3.83
2023-03-06T04:56:39.343Z,3.85
2023-03-06T04:59:05.686Z,4.13
2023-03-06T05:01:32.101Z,4.13
2023-03-06T05:03:58.535Z,4.63
2023-03-06T05:06:25.086Z,4.47
2023-03-06T05:08:51.374Z,4.70
2023-03-06T05:11:18.079Z,4.10
2023-03-06T05:13:44.555Z,4.40
2023-03-06T05:16:10.938Z,3.85
2023-03-06T05:18:37.418Z,4.15
2023-03-06T05:21:03.815Z,3.95
2023-03-06T05:23:30.346Z,4.13
2023-03-06T05:25:56.649Z,3.85
2023-03-06T05:28:23.215Z,4.60
2023-03-06T05:30:49.648Z,4.20
2023-03-06T05:33:16.151Z,4.25
2023-03-06T05:35:43.062Z,4.28
2023-03-06T05:38:09.469Z,4.05
2023-03-06T05:40:35.807Z,4.25
2023-03-06T05:43:02.138Z,4.25
2023-03-06T05:45:28.426Z,3.80
2023-03-06T05:47:54.860Z,3.72
2023-03-06T05:50:21.299Z,3.97
2023-03-06T05:52:47.733Z,4.22
2023-03-06T05:55:14.137Z,4.28
2023-03-06T05:57:40.435Z,4.07
2023-03-06T06:00:06.908Z,4.13
2023-03-06T06:02:33.268Z,4.50
2023-03-06T06:04:59.778Z,4.15
2023-03-06T06:07:26.113Z,3.95
2023-03-06T06:09:52.493Z,4.10
2023-03-06T06:12:18.881Z,4.53
2023-03-06T06:14:45.590Z,3.92
2023-03-06T06:17:12.158Z,4.65
2023-03-06T06:19:38.508Z,4.07
2023-03-06T06:22:04.862Z,4.80
2023-03-06T06:24:31.299Z,4.15
2023-03-06T06:26:57.680Z,4.80
2023-03-06T06:29:24.279Z,4.63
2023-03-06T06:31:50.684Z,4.43
2023-03-06T06:34:17.150Z,4.90
2023-03-06T06:36:43.660Z,4.65
2023-03-06T06:39:10.007Z,4.88
2023-03-06T06:41:53.600Z,4.90
2023-03-06T06:44:22.842Z,4.72
2023-03-06T06:47:21.206Z,5.28
2023-03-06T06:49:35.545Z,4.90
2023-03-06T06:52:01.865Z,5.00
2023-03-06T06:54:28.252Z,4.57
2023-03-06T06:56:54.570Z,5.60
2023-03-06T06:59:21.215Z,5.00
2023-03-06T07:01:47.856Z,5.30
2023-03-06T07:04:14.295Z,4.45
2023-03-06T07:06:40.678Z,5.00
2023-03-06T07:09:07.296Z,5.50
2023-03-06T07:11:33.771Z,5.97
2023-03-06T07:14:00.238Z,6.10
2023-03-06T07:16:26.608Z,5.30
2023-03-06T07:18:53.050Z,6.60
2023-03-06T07:21:19.378Z,6.20
2023-03-06T07:23:45.699Z,7.45
2023-03-06T07:26:11.990Z,8.60
2023-03-06T07:28:51.616Z,9.50
2023-03-06T07:31:19.231Z,9.68
2023-03-06T07:33:45.648Z,10.55
2023-03-06T07:36:13.779Z,10.77
2023-03-06T07:38:40.406Z,11.77
2023-03-06T07:41:06.750Z,12.60
2023-03-06T07:43:33.756Z,12.90
2023-03-06T07:46:00.181Z,13.00
2023-03-06T07:48:26.844Z,13.60
2023-03-06T07:50:53.186Z,13.77
2023-03-06T07:53:19.616Z,12.82
2023-03-06T07:55:46.088Z,12.70
2023-03-06T07:58:12.591Z,13.15
2023-03-06T08:00:39.377Z,13.63
2023-03-06T08:03:06.222Z,15.50
2023-03-06T08:05:32.582Z,16.15
2023-03-06T08:07:59.103Z,20.77
2023-03-06T08:10:25.902Z,22.98
2023-03-06T08:12:52.316Z,22.95
2023-03-06T08:15:18.683Z,23.25
2023-03-06T08:17:45.213Z,23.13
2023-03-06T08:20:11.511Z,22.98
2023-03-06T08:22:37.943Z,23.50
2023-03-06T08:25:04.498Z,21.40
2023-03-06T08:27:30.893Z,22.17
2023-03-06T08:29:57.443Z,20.58
2023-03-06T08:32:23.839Z,22.55
2023-03-06T08:34:50.254Z,21.42
2023-03-06T08:37:16.940Z,19.80
2023-03-06T08:39:43.863Z,20.90
2023-03-06T08:42:10.509Z,21.33
2023-03-06T08:44:36.993Z,21.27
2023-03-06T08:47:03.311Z,19.85
2023-03-06T08:49:29.682Z,21.27
2023-03-06T08:51:56.124Z,21.38
2023-03-06T08:54:22.625Z,20.35
2023-03-06T08:56:48.958Z,21.05
2023-03-06T08:59:15.475Z,19.45
2023-03-06T09:01:42.045Z,19.92
2023-03-06T09:04:08.571Z,20.55
2023-03-06T09:06:34.987Z,20.02
2023-03-06T09:09:01.346Z,19.55
2023-03-06T09:11:27.941Z,20.77
2023-03-06T09:13:54.411Z,19.30
2023-03-06T09:16:20.974Z,19.98
2023-03-06T09:18:47.280Z,18.98
2023-03-06T09:21:13.615Z,23.35
2023-03-06T09:23:40.029Z,24.70
2023-03-06T09:26:06.806Z,27.83
2023-03-06T09:28:33.472Z,27.52
2023-03-06T09:30:59.924Z,30.05
2023-03-06T09:33:26.500Z,30.40
2023-03-06T09:35:53.503Z,30.58
2023-03-06T09:38:19.929Z,29.55
2023-03-06T09:40:46.240Z,29.88
2023-03-06T09:43:13.176Z,29.30
2023-03-06T09:45:39.914Z,28.92
2023-03-06T09:48:06.467Z,30.05
2023-03-06T09:50:32.946Z,28.48
2023-03-06T09:52:59.303Z,29.75
2023-03-06T09:55:25.690Z,30.17
2023-03-06T09:57:52.379Z,29.00
2023-03-06T10:00:19.179Z,28.63
2023-03-06T10:02:45.586Z,29.73
2023-03-06T10:05:11.980Z,27.13
2023-03-06T10:07:38.955Z,27.92
2023-03-06T10:10:05.314Z,26.50
2023-03-06T10:12:31.722Z,26.40
2023-03-06T10:14:58.289Z,26.17
2023-03-06T10:17:24.568Z,27.10
2023-03-06T10:19:51.068Z,28.10
2023-03-06T10:22:17.670Z,26.70
2023-03-06T10:24:44.050Z,26.40
2023-03-06T10:27:10.477Z,25.98
2023-03-06T10:29:38.539Z,25.45
2023-03-06T10:32:05.533Z,27.15
2023-03-06T10:34:31.925Z,24.92
2023-03-06T10:36:58.275Z,24.92
2023-03-06T10:39:24.717Z,23.88
2023-03-06T10:41:51.226Z,24.45
2023-03-06T10:44:17.624Z,24.08
2023-03-06T10:46:44.274Z,23.38
2023-03-06T10:49:11.050Z,22.98
2023-03-06T10:51:37.372Z,23.95
2023-03-06T10:54:03.779Z,23.27
2023-03-06T10:56:30.151Z,23.42
2023-03-06T10:58:56.495Z,23.67
2023-03-06T11:01:23.233Z,22.98
2023-03-06T11:03:49.756Z,22.95
2023-03-06T11:06:16.105Z,22.60
2023-03-06T11:08:43.002Z,22.10
2023-03-06T11:11:09.733Z,24.38
2023-03-06T11:13:36.537Z,23.73
2023-03-06T11:16:02.871Z,23.90
2023-03-06T11:18:29.250Z,23.25
2023-03-06T11:20:55.864Z,23.60
2023-03-06T11:23:22.368Z,22.77
2023-03-06T11:25:48.897Z,22.48
2023-03-06T11:28:15.467Z,22.10
2023-03-06T11:30:41.889Z,22.92
2023-03-06T11:33:08.282Z,23.15
2023-03-06T11:35:34.631Z,21.45
2023-03-06T11:38:01.068Z,21.52
2023-03-06T11:40:27.436Z,22.10
2023-03-06T11:42:53.798Z,22.65
2023-03-06T11:45:20.169Z,21.83
2023-03-06T11:47:46.745Z,22.75
2023-03-06T11:50:13.276Z,24.13
2023-03-06T11:52:39.738Z,22.58
2023-03-06T11:55:06.143Z,24.02
2023-03-06T11:57:32.748Z,28.23
2023-03-06T11:59:59.180Z,27.60
2023-03-06T12:02:25.574Z,24.40
2023-03-06T12:04:52.062Z,23.17
2023-03-06T12:07:18.362Z,23.98
2023-03-06T12:09:45.015Z,23.80
2023-03-06T12:12:11.423Z,24.08
2023-03-06T12:14:37.814Z,23.58
2023-03-06T12:17:04.274Z,23.77
2023-03-06T12:19:30.750Z,22.83
2023-03-06T12:21:57.605Z,23.02
2023-03-06T12:24:24.026Z,22.42
2023-03-06T12:26:50.694Z,21.50
2023-03-06T12:29:17.434Z,20.98
2023-03-06T12:31:44.218Z,19.45
2023-03-06T12:34:11.452Z,22.50
2023-03-06T12:36:38.534Z,106.50
2023-03-06T12:39:06.256Z,106.60
2023-03-06T12:41:32.822Z,94.80
2023-03-06T12:43:59.456Z,86.88
2023-03-06T12:46:26.735Z,78.82
2023-03-06T12:48:53.905Z,76.82
2023-03-06T12:51:21.211Z,71.35
2023-03-06T12:53:47.931Z,67.82
2023-03-06T12:56:14.414Z,63.78
2023-03-06T12:58:41.703Z,210.23
2023-03-06T13:01:08.140Z,210.80
2023-03-06T13:03:34.719Z,166.85
2023-03-06T13:06:02.452Z,158.98
2023-03-06T13:08:29.296Z,149.52
2023-03-06T13:10:55.807Z,185.82
2023-03-06T13:13:22.698Z,269.13
2023-03-06T13:15:49.763Z,283.13
2023-03-06T13:18:16.167Z,273.98
2023-03-06T13:20:43.102Z,262.38
2023-03-06T13:23:10.396Z,253.75
2023-03-06T13:25:39.964Z,237.30
2023-03-06T13:28:07.299Z,218.35
2023-03-06T13:30:33.950Z,207.30
2023-03-06T13:33:00.765Z,198.80
2023-03-06T13:35:28.282Z,195.93
2023-03-06T13:37:54.965Z,194.90
2023-03-06T13:40:21.825Z,186.95
2023-03-06T13:42:48.684Z,184.43
2023-03-06T13:45:15.617Z,182.15
2023-03-06T13:48:09.671Z,185.20
2023-03-06T13:50:29.177Z,176.18
2023-03-06T13:52:57.346Z,173.18
2023-03-06T13:55:24.150Z,174.57
2023-03-06T13:57:51.335Z,169.63
2023-03-06T14:00:18.086Z,170.73
2023-03-06T14:02:45.242Z,168.05
2023-03-06T14:05:11.794Z,160.75
2023-03-06T14:07:38.718Z,163.07
2023-03-06T14:10:05.421Z,161.20
2023-03-06T14:12:32.742Z,156.70
2023-03-06T14:14:59.383Z,155.75
2023-03-06T14:17:25.777Z,155.20
2023-03-06T14:19:52.776Z,152.35
2023-03-06T14:22:19.296Z,149.73
2023-03-06T14:24:45.987Z,147.27
2023-03-06T14:27:12.290Z,145.18
2023-03-06T14:29:38.679Z,141.88
2023-03-06T14:32:05.067Z,139.48
2023-03-06T14:34:32.095Z,138.73
2023-03-06T14:36:58.438Z,136.02
2023-03-06T14:39:24.784Z,134.05
2023-03-06T14:41:51.599Z,133.65
2023-03-06T14:44:18.018Z,130.68
2023-03-06T14:46:45.081Z,130.52
2023-03-06T14:49:11.548Z,130.23
2023-03-06T14:51:37.948Z,128.73
2023-03-06T14:54:04.334Z,124.25
2023-03-06T14:56:31.071Z,124.03
2023-03-06T14:58:57.482Z,120.97
2023-03-06T15:01:23.935Z,119.25
2023-03-06T15:03:50.429Z,113.95
2023-03-06T15:06:17.621Z,116.72
2023-03-06T15:08:44.686Z,114.07
2023-03-06T15:11:11.073Z,115.43
2023-03-06T15:13:37.488Z,111.85
2023-03-06T15:16:04.596Z,109.10
2023-03-06T15:18:30.985Z,107.13
2023-03-06T15:20:57.305Z,107.57
2023-03-06T15:23:23.787Z,104.28
2023-03-06T15:25:50.632Z,103.82
2023-03-06T15:28:17.243Z,99.80
2023-03-06T15:30:43.654Z,99.47
2023-03-06T15:33:10.536Z,99.72
2023-03-06T15:35:38.189Z,98.15
2023-03-06T15:38:04.809Z,96.72
2023-03-06T15:40:31.446Z,94.32
2023-03-06T15:42:58.438Z,92.95
2023-03-06T15:45:24.954Z,93.18
2023-03-06T15:47:51.717Z,89.47
2023-03-06T15:50:18.127Z,92.25
2023-03-06T15:52:44.595Z,86.85
2023-03-06T15:55:11.094Z,83.72
2023-03-06T15:57:37.585Z,86.50
2023-03-06T16:00:04.097Z,82.68
2023-03-06T16:02:30.836Z,83.35
2023-03-06T16:04:57.710Z,84.28
2023-03-06T16:07:24.390Z,78.80
2023-03-06T16:09:50.965Z,79.80
2023-03-06T16:12:17.499Z,78.47
2023-03-06T16:14:43.931Z,73.80
2023-03-06T16:17:10.255Z,75.55
2023-03-06T16:19:36.597Z,74.95
2023-03-06T16:22:03.005Z,74.68
2023-03-06T16:24:29.835Z,72.47
2023-03-06T16:26:56.196Z,69.72
2023-03-06T16:29:23.057Z,69.93
2023-03-06T16:31:49.928Z,69.93
2023-03-06T16:34:16.717Z,69.60
2023-03-06T16:36:43.096Z,65.57
2023-03-06T16:39:09.562Z,65.65
2023-03-06T16:41:35.973Z,63.40
2023-03-06T16:44:02.352Z,64.82
2023-03-06T16:46:29.260Z,62.83
2023-03-06T16:48:55.908Z,62.20
2023-03-06T16:51:22.339Z,62.08
2023-03-06T16:53:48.780Z,57.72
2023-03-06T16:56:15.417Z,57.85
2023-03-06T16:58:41.884Z,57.97
2023-03-06T17:01:08.408Z,56.20
2023-03-06T17:03:34.781Z,58.72
2023-03-06T17:06:01.393Z,54.60
2023-03-06T17:08:27.802Z,55.40
2023-03-06T17:10:54.388Z,52.50
2023-03-06T17:13:20.884Z,52.92
2023-03-06T17:15:47.539Z,51.40
2023-03-06T17:18:13.951Z,52.03
2023-03-06T17:20:40.240Z,50.70
2023-03-06T17:23:07.109Z,50.55
2023-03-06T17:25:33.706Z,50.13
2023-03-06T17:28:00.061Z,50.70
2023-03-06T17:30:26.472Z,48.35
2023-03-06T17:32:53.186Z,48.03
2023-03-06T17:35:19.869Z,47.10
2023-03-06T17:37:46.303Z,47.65
2023-03-06T17:40:12.582Z,44.92
2023-03-06T17:42:39.035Z,44.42
2023-03-06T17:45:05.590Z,45.75
2023-03-06T17:47:31.992Z,43.72
2023-03-06T17:49:58.317Z,43.88
2023-03-06T17:52:24.832Z,42.17
2023-03-06T17:54:51.554Z,41.45
2023-03-06T17:57:18.009Z,42.85
2023-03-06T17:59:44.847Z,39.75
2023-03-06T18:02:11.246Z,40.38
2023-03-06T18:04:38.294Z,39.83
2023-03-06T18:07:04.633Z,39.38
2023-03-06T18:09:30.937Z,39.13
2023-03-06T18:11:57.448Z,36.47
2023-03-06T18:14:23.837Z,36.83
2023-03-06T18:16:50.189Z,36.22
2023-03-06T18:19:17.066Z,36.10
2023-03-06T18:21:43.417Z,35.00
2023-03-06T18:24:10.104Z,35.78
2023-03-06T18:26:36.763Z,34.80
2023-03-06T18:29:03.280Z,34.08
2023-03-06T18:31:30.473Z,33.42
2023-03-06T18:33:57.838Z,33.33
2023-03-06T18:36:24.262Z,32.58
2023-03-06T18:38:51.103Z,30.88
2023-03-06T18:41:17.738Z,32.22
2023-03-06T18:43:44.740Z,32.03
2023-03-06T18:46:11.148Z,32.78
2023-03-06T18:48:37.919Z,30.48
2023-03-06T18:51:04.302Z,30.58
2023-03-06T18:53:30.759Z,30.10
2023-03-06T18:55:57.048Z,28.67
2023-03-06T18:58:23.587Z,28.95
2023-03-06T19:00:49.964Z,29.00
2023-03-06T19:03:16.483Z,28.35
2023-03-06T19:05:42.965Z,28.67
2023-03-06T19:08:09.643Z,26.98
2023-03-06T19:10:36.010Z,29.75
2023-03-06T19:13:02.790Z,25.67
2023-03-06T19:15:29.164Z,26.95
2023-03-06T19:17:55.763Z,25.60
2023-03-06T19:20:22.127Z,25.42
2023-03-06T19:22:48.788Z,25.95
2023-03-06T19:25:15.502Z,23.17
2023-03-06T19:27:42.094Z,23.80
2023-03-06T19:30:09.541Z,24.40
2023-03-06T19:32:36.065Z,23.33
2023-03-06T19:35:02.734Z,23.63
2023-03-06T19:37:29.124Z,23.40
2023-03-06T19:39:55.772Z,23.13
2023-03-06T19:42:22.347Z,23.38
2023-03-06T19:44:49.089Z,22.50
2023-03-06T19:47:15.394Z,21.25
2023-03-06T19:49:41.856Z,20.60
2023-03-06T19:52:08.745Z,21.88
2023-03-06T19:54:35.333Z,20.50
2023-03-06T19:57:02.097Z,20.67
2023-03-06T19:59:28.842Z,20.42
2023-03-06T20:01:55.265Z,19.83
2023-03-06T20:04:21.580Z,20.20
2023-03-06T20:06:48.178Z,19.90
2023-03-06T20:09:15.121Z,20.23
2023-03-06T20:11:41.535Z,19.60
2023-03-06T20:14:08.194Z,20.63
2023-03-06T20:16:34.703Z,18.45
2023-03-06T20:19:01.184Z,18.92
2023-03-06T20:21:27.691Z,19.48
2023-03-06T20:23:54.382Z,18.13
2023-03-06T20:26:20.717Z,18.17
2023-03-06T20:28:47.523Z,18.05
2023-03-06T20:31:13.878Z,17.45
2023-03-06T20:33:40.243Z,18.17
2023-03-06T20:36:07.401Z,17.85
2023-03-06T20:38:34.028Z,17.95
2023-03-06T20:41:00.726Z,16.42
2023-03-06T20:43:27.712Z,17.38
2023-03-06T20:45:54.378Z,16.45
2023-03-06T20:48:20.798Z,16.52
2023-03-06T20:50:47.110Z,16.58
2023-03-06T20:53:13.429Z,16.88
2023-03-06T20:55:39.954Z,16.65
2023-03-06T20:58:06.438Z,15.82
2023-03-06T21:00:32.874Z,16.67
2023-03-06T21:02:59.853Z,16.10
2023-03-06T21:05:26.312Z,15.68
2023-03-06T21:07:52.714Z,14.98
2023-03-06T21:10:18.987Z,15.40
2023-03-06T21:12:45.797Z,15.32
2023-03-06T21:15:12.128Z,14.70
2023-03-06T21:17:39.133Z,14.82
2023-03-06T21:20:05.512Z,15.15
2023-03-06T21:22:31.968Z,14.52
2023-03-06T21:24:58.913Z,14.43
2023-03-06T21:27:25.314Z,14.40
2023-03-06T21:29:51.801Z,14.57
2023-03-06T21:32:18.202Z,14.75
2023-03-06T21:34:44.612Z,14.50
2023-03-06T21:37:11.332Z,13.65
2023-03-06T21:39:37.913Z,14.95
2023-03-06T21:42:04.336Z,13.30
2023-03-06T21:44:30.744Z,13.88
2023-03-06T21:46:57.082Z,13.05
2023-03-06T21:49:23.687Z,13.45
2023-03-06T21:51:50.154Z,13.73
2023-03-06T21:54:16.519Z,14.23
2023-03-06T21:56:42.909Z,14.20
2023-03-06T21:59:09.253Z,13.25
2023-03-06T22:01:35.610Z,12.73
2023-03-06T22:04:02.066Z,13.13
2023-03-06T22:06:29.102Z,12.43
2023-03-06T22:08:55.484Z,12.23
2023-03-06T22:11:22.264Z,12.80
2023-03-06T22:13:48.771Z,12.48
2023-03-06T22:16:15.367Z,13.38
2023-03-06T22:18:41.907Z,12.43
2023-03-06T22:21:08.221Z,12.98
2023-03-06T22:23:35.346Z,12.23
2023-03-06T22:26:01.875Z,12.43
2023-03-06T22:28:28.855Z,11.88
2023-03-06T22:30:55.385Z,12.50
2023-03-06T22:33:21.804Z,11.80
2023-03-06T22:35:48.151Z,12.18
2023-03-06T22:38:14.493Z,11.88
2023-03-06T22:40:40.901Z,12.52
2023-03-06T22:43:07.769Z,12.15
2023-03-06T22:45:34.755Z,12.20
2023-03-06T22:48:10.432Z,11.23
2023-03-06T22:50:37.259Z,11.60
2023-03-06T22:53:03.674Z,11.70
2023-03-06T22:55:29.974Z,11.18
2023-03-06T22:57:56.706Z,11.15
2023-03-06T23:00:23.244Z,11.18
2023-03-06T23:02:50.340Z,11.40
2023-03-06T23:05:17.425Z,12.02
2023-03-06T23:07:44.108Z,12.05
2023-03-06T23:10:11.147Z,11.65
2023-03-06T23:12:37.526Z,11.77
2023-03-06T23:15:04.114Z,11.65
2023-03-06T23:17:30.550Z,10.85
2023-03-06T23:19:57.735Z,11.20
2023-03-06T23:22:24.195Z,11.73
2023-03-06T23:24:50.789Z,10.77
2023-03-06T23:27:17.108Z,11.05
2023-03-06T23:29:43.444Z,11.52
2023-03-06T23:32:09.823Z,11.68
2023-03-06T23:34:36.312Z,10.50
2023-03-06T23:37:02.669Z,12.68
2023-03-06T23:39:29.346Z,12.10
2023-03-06T23:41:55.597Z,10.80
2023-03-06T23:44:22.030Z,11.73
2023-03-06T23:46:48.501Z,12.35
2023-03-06T23:49:14.883Z,12.50
2023-03-06T23:51:41.267Z,11.98
2023-03-06T23:54:07.641Z,11.18
2023-03-06T23:56:34.031Z,11.10
2023-03-06T23:59:00.489Z,10.70
